Time;durP1;ratioP1;P1;durP2;ratioP2;P2;SDS_P1;SDS_P2;PMS_P1;PMS_P2;Temp;Humidity;BMP_temperature;BMP_pressure;BME280_temperature;BME280_humidity;BME280_pressure;Samples;Min_cycle;Max_cycle;Signal;HPM_P1;HPM_P2
2022/11/16 00:02:05;;;;;;;98.90;53.15;;;;;;;;;;4975795;28;20483;-72
2022/11/16 00:04:30;;;;;;;112.20;58.33;;;;;;;;;;4977823;28;20078;-72
2022/11/16 00:06:56;;;;;;;106.47;55.33;;;;;;;;;;4977710;28;20042;-72
2022/11/16 00:09:21;;;;;;;106.32;55.33;;;;;;;;;;4960201;28;20030;-72
2022/11/16 00:11:51;;;;;;;105.93;55.08;;;;;;;;;;4977877;28;20425;-72
2022/11/16 00:14:17;;;;;;;126.35;64.22;;;;;;;;;;4976286;28;20035;-72
2022/11/16 00:16:42;;;;;;;130.43;64.00;;;;;;;;;;4960353;28;20016;-72
2022/11/16 00:19:08;;;;;;;129.38;62.67;;;;;;;;;;4977880;28;20086;-72
2022/11/16 00:21:34;;;;;;;123.05;62.45;;;;;;;;;;4977360;28;20074;-72
2022/11/16 00:23:59;;;;;;;128.57;61.58;;;;;;;;;;4977344;28;20035;-72
2022/11/16 00:26:25;;;;;;;87.63;46.58;;;;;;;;;;4977615;28;20081;-72
2022/11/16 00:28:51;;;;;;;66.63;38.25;;;;;;;;;;4977186;28;20035;-71
2022/11/16 00:31:17;;;;;;;60.58;36.42;;;;;;;;;;4977814;28;20057;-71
2022/11/16 00:33:43;;;;;;;57.70;33.80;;;;;;;;;;4960470;28;20058;-71
2022/11/16 00:38:59;;;;;;;63.60;35.78;;;;;;;;;;5020734;23;20100;-71
2022/11/16 00:41:25;;;;;;;66.15;39.13;;;;;;;;;;5016071;28;20026;-71
2022/11/16 00:43:51;;;;;;;71.00;38.92;;;;;;;;;;5014833;28;20430;-71
2022/11/16 00:46:16;;;;;;;68.22;39.80;;;;;;;;;;5015987;28;20036;-71
2022/11/16 00:48:41;;;;;;;68.93;39.67;;;;;;;;;;5015934;28;20101;-71
2022/11/16 00:51:07;;;;;;;64.43;37.83;;;;;;;;;;5016582;28;20401;-72
2022/11/16 00:53:34;;;;;;;65.75;39.05;;;;;;;;;;5014450;28;20025;-72
2022/11/16 00:55:59;;;;;;;64.07;37.15;;;;;;;;;;5014530;28;20026;-71
2022/11/16 00:58:24;;;;;;;66.80;37.40;;;;;;;;;;5014507;28;20026;-72
2022/11/16 01:01:04;;;;;;;61.70;36.33;;;;;;;;;;5015620;28;20026;-72
2022/11/16 01:03:29;;;;;;;63.28;37.60;;;;;;;;;;5014348;28;20030;-71
2022/11/16 01:05:59;;;;;;;69.43;40.53;;;;;;;;;;5015684;28;20037;-72
2022/11/16 01:08:24;;;;;;;77.03;43.20;;;;;;;;;;5014547;28;20119;-72
2022/11/16 01:10:49;;;;;;;82.97;44.63;;;;;;;;;;5014845;28;20050;-72
2022/11/16 01:13:15;;;;;;;79.25;42.92;;;;;;;;;;5016138;28;20033;-73
2022/11/16 01:15:46;;;;;;;83.20;43.97;;;;;;;;;;5014186;28;20021;-72
2022/11/16 01:18:11;;;;;;;76.75;42.63;;;;;;;;;;5015584;28;20501;-72
2022/11/16 01:20:39;;;;;;;78.68;44.45;;;;;;;;;;5016345;28;20049;-71
2022/11/16 01:23:04;;;;;;;76.50;43.08;;;;;;;;;;5015510;28;20041;-71
2022/11/16 01:25:29;;;;;;;74.78;41.00;;;;;;;;;;5015225;28;20022;-71
2022/11/16 01:27:55;;;;;;;74.93;42.60;;;;;;;;;;5015611;28;20053;-71
2022/11/16 01:30:32;;;;;;;72.82;40.20;;;;;;;;;;5015414;28;20438;-72
2022/11/16 01:33:02;;;;;;;73.28;42.17;;;;;;;;;;5013767;28;20030;-72
2022/11/16 01:35:27;;;;;;;89.18;48.25;;;;;;;;;;5013792;28;20028;-72
2022/11/16 01:37:53;;;;;;;122.18;59.33;;;;;;;;;;5013800;28;20033;-72
2022/11/16 01:40:18;;;;;;;141.95;63.65;;;;;;;;;;5014087;28;20034;-72
2022/11/16 01:42:44;;;;;;;87.93;46.75;;;;;;;;;;5014114;28;20029;-72
2022/11/16 01:45:17;;;;;;;59.78;35.22;;;;;;;;;;5013565;28;20097;-72
2022/11/16 01:47:43;;;;;;;55.33;35.13;;;;;;;;;;5013583;28;20057;-72
2022/11/16 01:50:14;;;;;;;53.33;31.50;;;;;;;;;;5013318;28;20028;-72
2022/11/16 01:52:47;;;;;;;47.10;29.92;;;;;;;;;;5013425;28;20022;-72
2022/11/16 01:55:13;;;;;;;48.95;30.80;;;;;;;;;;5013440;28;20413;-71
2022/11/16 01:57:58;;;;;;;51.50;31.75;;;;;;;;;;5014933;28;20125;-71
2022/11/16 02:00:24;;;;;;;51.55;30.92;;;;;;;;;;5013924;28;20022;-71
2022/11/16 02:02:59;;;;;;;53.25;32.45;;;;;;;;;;5014906;28;20355;-71
2022/11/16 02:05:44;;;;;;;49.65;29.45;;;;;;;;;;5014165;28;20049;-71
2022/11/16 02:11:25;;;;;;;48.30;29.70;;;;;;;;;;5013385;28;20041;-72
2022/11/16 02:14:20;;;;;;;47.63;29.48;;;;;;;;;;5013418;28;20033;-71
2022/11/16 02:16:54;;;;;;;46.40;28.08;;;;;;;;;;4944207;28;20232;-71
2022/11/16 02:19:44;;;;;;;48.58;29.67;;;;;;;;;;5013143;28;20033;-72
2022/11/16 02:22:09;;;;;;;48.85;29.50;;;;;;;;;;5014523;28;20033;-72
2022/11/16 02:24:39;;;;;;;56.53;34.05;;;;;;;;;;5012924;28;20492;-71
2022/11/16 02:27:23;;;;;;;58.65;34.45;;;;;;;;;;5013460;28;20062;-71
2022/11/16 02:29:53;;;;;;;64.55;37.08;;;;;;;;;;5012848;28;20499;-71
2022/11/16 02:32:27;;;;;;;64.60;38.90;;;;;;;;;;5014120;28;20026;-72
2022/11/16 02:34:56;;;;;;;65.40;38.33;;;;;;;;;;5013167;28;20034;-71
2022/11/16 02:37:23;;;;;;;67.75;39.40;;;;;;;;;;5013144;28;20375;-72
2022/11/16 02:39:51;;;;;;;71.22;39.92;;;;;;;;;;5012978;28;20363;-72
2022/11/16 02:42:21;;;;;;;65.70;38.15;;;;;;;;;;5012667;28;20036;-71
2022/11/16 02:44:50;;;;;;;64.53;38.72;;;;;;;;;;5012672;28;20034;-71
2022/11/16 02:47:27;;;;;;;61.97;36.70;;;;;;;;;;5012645;28;20030;-71
2022/11/16 02:50:01;;;;;;;58.42;36.45;;;;;;;;;;5012620;28;20068;-71
2022/11/16 02:52:27;;;;;;;62.95;37.50;;;;;;;;;;5012692;28;20049;-71
2022/11/16 02:54:53;;;;;;;60.45;37.50;;;;;;;;;;5012530;28;20492;-72
2022/11/16 02:57:27;;;;;;;62.38;36.15;;;;;;;;;;5013781;28;20053;-72
2022/11/16 02:59:55;;;;;;;57.05;34.45;;;;;;;;;;5013066;28;20024;-72
2022/11/16 03:02:20;;;;;;;58.58;33.78;;;;;;;;;;5017934;28;20418;-72
2022/11/16 03:04:48;;;;;;;60.45;34.40;;;;;;;;;;5020580;28;20116;-72
2022/11/16 03:07:16;;;;;;;60.63;36.13;;;;;;;;;;5020416;28;20493;-71
2022/11/16 03:09:42;;;;;;;63.80;37.20;;;;;;;;;;5019000;28;20555;-72
2022/11/16 03:12:10;;;;;;;64.88;36.92;;;;;;;;;;5018909;28;20033;-72
2022/11/16 03:14:50;;;;;;;65.90;38.33;;;;;;;;;;5018869;28;20089;-72
2022/11/16 03:17:39;;;;;;;60.40;36.03;;;;;;;;;;5018897;28;20025;-71
2022/11/16 03:20:11;;;;;;;63.15;36.17;;;;;;;;;;5006139;28;20272;-71
2022/11/16 03:22:38;;;;;;;59.33;35.28;;;;;;;;;;5020217;28;20367;-72
2022/11/16 03:25:04;;;;;;;59.03;34.00;;;;;;;;;;5018905;28;20037;-71
2022/11/16 03:27:40;;;;;;;54.28;33.67;;;;;;;;;;5018982;28;20433;-72
2022/11/16 03:30:15;;;;;;;54.42;32.58;;;;;;;;;;5026590;23;20490;-72
2022/11/16 03:32:50;;;;;;;52.80;30.88;;;;;;;;;;5018682;28;20077;-72
2022/11/16 03:35:21;;;;;;;54.80;31.60;;;;;;;;;;5018776;28;20121;-72
2022/11/16 03:37:48;;;;;;;52.47;32.13;;;;;;;;;;5018958;28;20446;-72
2022/11/16 03:40:15;;;;;;;50.55;30.23;;;;;;;;;;5019055;28;20033;-72
2022/11/16 03:42:42;;;;;;;53.42;31.10;;;;;;;;;;5019099;28;20105;-72
2022/11/16 03:45:09;;;;;;;51.03;30.38;;;;;;;;;;5018835;28;20105;-72
2022/11/16 03:47:34;;;;;;;48.03;30.40;;;;;;;;;;5018611;28;20025;-72
2022/11/16 03:50:02;;;;;;;47.40;29.98;;;;;;;;;;5018990;28;20462;-72
2022/11/16 03:52:28;;;;;;;54.03;31.48;;;;;;;;;;5020032;28;20026;-72
2022/11/16 03:54:53;;;;;;;51.80;31.08;;;;;;;;;;5018948;28;20026;-72
2022/11/16 03:57:19;;;;;;;50.05;30.33;;;;;;;;;;5018653;28;20045;-72
2022/11/16 03:59:51;;;;;;;48.17;31.40;;;;;;;;;;5018913;28;20010;-72
2022/11/16 04:02:16;;;;;;;47.83;30.55;;;;;;;;;;5018956;28;20436;-73
2022/11/16 04:24:11;;;;;;;57.75;32.50;;;;;;;;;;5016220;28;20033;-73
2022/11/16 04:28:12;;;;;;;57.83;35.00;;;;;;;;;;5017057;28;20034;-73
2022/11/16 04:29:22;;;;;;;57.92;33.25;;;;;;;;;;5015448;28;20402;-73
2022/11/16 04:40:02;;;;;;;61.47;36.05;;;;;;;;;;5014965;28;20022;-72
2022/11/16 04:42:28;;;;;;;57.95;37.47;;;;;;;;;;5014812;28;20133;-72
2022/11/16 04:47:44;;;;;;;59.50;35.08;;;;;;;;;;5016191;28;20034;-72
2022/11/16 04:50:10;;;;;;;54.88;32.63;;;;;;;;;;5014624;28;20030;-72
2022/11/16 04:52:37;;;;;;;56.83;33.40;;;;;;;;;;5015070;28;20413;-72
2022/11/16 04:55:04;;;;;;;60.63;34.38;;;;;;;;;;5014465;28;20030;-72
2022/11/16 04:57:29;;;;;;;59.53;35.40;;;;;;;;;;5014555;28;20021;-72
2022/11/16 04:59:55;;;;;;;57.50;34.85;;;;;;;;;;5014635;28;20068;-72
2022/11/16 05:02:21;;;;;;;59.25;35.08;;;;;;;;;;5014441;28;20022;-72
2022/11/16 05:04:55;;;;;;;60.42;35.13;;;;;;;;;;5015675;28;20432;-72
2022/11/16 05:07:22;;;;;;;62.92;36.55;;;;;;;;;;5014014;28;20513;-72
2022/11/16 05:09:49;;;;;;;60.25;36.13;;;;;;;;;;5014587;28;20497;-73
2022/11/16 05:12:18;;;;;;;59.63;35.45;;;;;;;;;;5014304;28;20038;-73
2022/11/16 05:14:45;;;;;;;57.58;33.47;;;;;;;;;;4998853;28;20018;-73
2022/11/16 05:17:14;;;;;;;54.45;32.55;;;;;;;;;;5014111;28;20414;-73
2022/11/16 05:22:25;;;;;;;46.08;27.80;;;;;;;;;;5013752;28;20033;-72
2022/11/16 05:24:51;;;;;;;49.15;29.40;;;;;;;;;;5013606;28;20570;-72
2022/11/16 05:27:17;;;;;;;51.33;30.17;;;;;;;;;;5014598;28;20060;-72
2022/11/16 05:29:43;;;;;;;51.17;31.13;;;;;;;;;;5013849;28;20490;-71
2022/11/16 05:32:10;;;;;;;55.63;32.88;;;;;;;;;;5013827;28;20104;-71
2022/11/16 05:34:35;;;;;;;51.53;32.97;;;;;;;;;;5015739;28;20366;-71
2022/11/16 05:37:01;;;;;;;49.47;30.55;;;;;;;;;;5014054;28;20037;-72
2022/11/16 05:39:28;;;;;;;49.25;28.70;;;;;;;;;;4996703;28;20022;-71
2022/11/16 05:41:54;;;;;;;51.65;30.27;;;;;;;;;;5013890;28;20413;-71
2022/11/16 05:44:20;;;;;;;48.97;29.83;;;;;;;;;;5013593;28;20043;-72
2022/11/16 05:46:46;;;;;;;47.05;29.15;;;;;;;;;;5013860;28;20461;-72
2022/11/16 05:49:12;;;;;;;45.63;26.98;;;;;;;;;;5014929;28;20068;-72
2022/11/16 05:51:39;;;;;;;48.53;28.83;;;;;;;;;;5013404;28;20391;-72
2022/11/16 05:54:05;;;;;;;44.15;28.35;;;;;;;;;;5012743;28;20029;-72
2022/11/16 05:56:31;;;;;;;46.83;28.33;;;;;;;;;;5013364;28;20022;-72
2022/11/16 05:58:57;;;;;;;48.53;28.30;;;;;;;;;;4997276;28;20025;-72
2022/11/16 06:01:24;;;;;;;44.25;27.63;;;;;;;;;;5012047;28;20042;-72
2022/11/16 06:03:49;;;;;;;48.05;27.90;;;;;;;;;;5011908;28;20397;-72
2022/11/16 06:06:16;;;;;;;51.13;29.27;;;;;;;;;;5011831;28;20187;-72
2022/11/16 06:08:42;;;;;;;48.47;28.17;;;;;;;;;;5013472;28;20545;-71
2022/11/16 06:11:12;;;;;;;47.28;27.58;;;;;;;;;;5012140;28;20030;-72
2022/11/16 06:13:38;;;;;;;46.85;28.30;;;;;;;;;;5011681;28;20029;-72
2022/11/16 06:16:04;;;;;;;46.20;27.15;;;;;;;;;;5012010;28;20018;-72
2022/11/16 06:18:35;;;;;;;46.55;29.10;;;;;;;;;;5012152;28;20030;-72
2022/11/16 06:21:00;;;;;;;49.58;28.17;;;;;;;;;;5011547;28;20048;-73
2022/11/16 06:23:26;;;;;;;48.22;28.73;;;;;;;;;;5011537;28;20108;-72
2022/11/16 06:25:53;;;;;;;48.72;29.77;;;;;;;;;;5011887;28;20128;-73
2022/11/16 06:28:18;;;;;;;48.65;28.70;;;;;;;;;;4995492;28;20026;-73
2022/11/16 06:30:44;;;;;;;65.30;32.95;;;;;;;;;;5011786;28;20050;-73
2022/11/16 06:33:09;;;;;;;64.57;34.88;;;;;;;;;;5011304;28;20030;-73
2022/11/16 06:35:36;;;;;;;64.20;33.90;;;;;;;;;;5011447;28;20034;-73
2022/11/16 06:38:02;;;;;;;51.95;29.90;;;;;;;;;;5013021;28;20029;-72
2022/11/16 06:40:28;;;;;;;51.78;29.52;;;;;;;;;;5014304;28;20026;-72
2022/11/16 06:42:55;;;;;;;48.78;28.48;;;;;;;;;;5013311;28;20030;-72
2022/11/16 06:45:22;;;;;;;47.30;27.42;;;;;;;;;;5012566;28;20050;-73
2022/11/16 06:47:51;;;;;;;42.17;25.85;;;;;;;;;;4996131;28;20025;-73
2022/11/16 06:50:18;;;;;;;46.53;26.05;;;;;;;;;;5011283;28;20022;-72
2022/11/16 06:52:44;;;;;;;42.22;24.58;;;;;;;;;;5011603;28;20382;-72
2022/11/16 06:55:10;;;;;;;39.97;24.48;;;;;;;;;;5012537;28;20026;-72
2022/11/16 06:57:36;;;;;;;40.88;24.20;;;;;;;;;;5012618;28;20488;-72
2022/11/16 07:00:03;;;;;;;41.80;24.30;;;;;;;;;;5013089;28;20025;-73
2022/11/16 07:02:30;;;;;;;45.88;26.40;;;;;;;;;;4996302;28;20125;-73
2022/11/16 07:04:57;;;;;;;45.55;26.48;;;;;;;;;;5012796;28;20084;-72
2022/11/16 07:07:23;;;;;;;42.83;25.83;;;;;;;;;;5013128;28;20010;-72
2022/11/16 07:09:49;;;;;;;44.45;26.63;;;;;;;;;;5014079;28;20030;-72
2022/11/16 07:12:14;;;;;;;41.70;26.13;;;;;;;;;;5014606;28;20125;-72
2022/11/16 07:14:40;;;;;;;44.83;26.35;;;;;;;;;;5012474;28;20088;-72
2022/11/16 07:17:07;;;;;;;43.97;25.75;;;;;;;;;;4996441;28;20020;-72
2022/11/16 07:19:35;;;;;;;49.00;28.05;;;;;;;;;;5012975;28;20030;-72
2022/11/16 07:22:00;;;;;;;42.90;26.60;;;;;;;;;;5012606;28;20109;-72
2022/11/16 07:24:26;;;;;;;39.17;24.67;;;;;;;;;;5012353;28;20550;-72
2022/11/16 07:26:52;;;;;;;40.25;24.58;;;;;;;;;;5012372;28;20014;-72
2022/11/16 07:29:21;;;;;;;41.47;24.90;;;;;;;;;;5012407;28;20037;-72
2022/11/16 07:32:06;;;;;;;44.15;26.02;;;;;;;;;;5012178;28;20125;-72
2022/11/16 07:34:54;;;;;;;39.90;24.98;;;;;;;;;;5010418;28;20049;-72
2022/11/16 07:37:20;;;;;;;39.10;24.35;;;;;;;;;;5012185;28;20030;-72
2022/11/16 07:39:46;;;;;;;42.33;23.88;;;;;;;;;;5012182;28;20022;-72
2022/11/16 07:42:11;;;;;;;34.50;21.17;;;;;;;;;;5012440;28;20599;-72
2022/11/16 07:45:04;;;;;;;36.85;21.65;;;;;;;;;;5012443;28;20064;-72
2022/11/16 07:47:34;;;;;;;;;;;;;;;;;;5015062;28;20358;-72
2022/11/16 07:50:00;;;;;;;34.05;21.60;;;;;;;;;;5015834;28;19909;-72
2022/11/16 07:52:26;;;;;;;33.03;21.23;;;;;;;;;;5015792;28;20014;-72
2022/11/16 07:55:15;;;;;;;33.67;21.52;;;;;;;;;;5017101;28;20099;-72
2022/11/16 07:57:41;;;;;;;30.85;20.65;;;;;;;;;;5015722;28;20041;-72
2022/11/16 08:00:08;;;;;;;32.42;20.25;;;;;;;;;;5015647;28;20030;-72
2022/11/16 08:02:42;;;;;;;30.52;19.98;;;;;;;;;;5016461;28;20084;-73
2022/11/16 08:05:14;;;;;;;27.50;18.48;;;;;;;;;;5015529;28;20088;-72
2022/11/16 08:07:40;;;;;;;26.17;19.05;;;;;;;;;;5015509;28;20025;-72
2022/11/16 08:10:06;;;;;;;28.50;18.85;;;;;;;;;;5015465;28;20018;-72
2022/11/16 08:12:31;;;;;;;27.48;18.60;;;;;;;;;;4999178;28;20034;-72
2022/11/16 08:14:57;;;;;;;29.55;19.23;;;;;;;;;;5015301;28;20045;-72
2022/11/16 08:17:22;;;;;;;28.13;18.33;;;;;;;;;;5015325;28;20022;-72
2022/11/16 08:19:47;;;;;;;27.33;18.00;;;;;;;;;;5015315;28;20014;-73
2022/11/16 08:22:14;;;;;;;26.85;18.73;;;;;;;;;;5015500;28;20030;-72
2022/11/16 08:24:40;;;;;;;32.50;20.05;;;;;;;;;;5015479;28;20108;-72
2022/11/16 08:27:07;;;;;;;30.15;19.23;;;;;;;;;;5015151;28;20033;-72
2022/11/16 08:29:33;;;;;;;28.83;20.20;;;;;;;;;;5014876;28;20038;-73
2022/11/16 08:31:59;;;;;;;26.23;18.48;;;;;;;;;;5015041;28;20033;-73
2022/11/16 08:34:24;;;;;;;23.48;15.35;;;;;;;;;;5014903;28;20144;-72
2022/11/16 08:36:55;;;;;;;23.00;16.52;;;;;;;;;;5016259;28;20436;-72
2022/11/16 08:39:27;;;;;;;25.10;16.77;;;;;;;;;;5015212;28;20080;-73
2022/11/16 08:41:52;;;;;;;25.75;16.40;;;;;;;;;;5014916;28;20022;-72
2022/11/16 08:44:18;;;;;;;25.17;17.17;;;;;;;;;;5014915;28;20033;-72
2022/11/16 08:46:48;;;;;;;21.70;15.20;;;;;;;;;;4999126;28;20100;-72
2022/11/16 08:49:27;;;;;;;21.40;15.50;;;;;;;;;;5014746;28;20477;-72
2022/11/16 08:51:54;;;;;;;20.75;14.93;;;;;;;;;;5014706;28;20080;-71
2022/11/16 08:54:19;;;;;;;20.42;15.20;;;;;;;;;;5014587;28;20022;-72
2022/11/16 08:56:45;;;;;;;19.77;14.77;;;;;;;;;;5014608;28;20125;-71
2022/11/16 08:59:11;;;;;;;18.73;14.15;;;;;;;;;;4997697;28;20021;-72
2022/11/16 09:01:42;;;;;;;19.58;15.13;;;;;;;;;;5014572;28;20069;-72
2022/11/16 09:04:08;;;;;;;26.25;17.73;;;;;;;;;;5015704;28;20409;-71
2022/11/16 09:06:34;;;;;;;22.60;17.27;;;;;;;;;;5015703;28;20030;-72
2022/11/16 09:09:00;;;;;;;24.90;17.33;;;;;;;;;;5014343;28;20054;-71
2022/11/16 09:11:25;;;;;;;24.27;17.27;;;;;;;;;;5016147;28;20061;-72
2022/11/16 09:13:52;;;;;;;27.90;19.67;;;;;;;;;;5015475;28;20065;-72
2022/11/16 09:16:19;;;;;;;28.40;19.17;;;;;;;;;;5015492;28;20470;-71
2022/11/16 09:18:46;;;;;;;28.70;20.45;;;;;;;;;;5015665;28;20076;-72
2022/11/16 09:21:11;;;;;;;33.05;21.73;;;;;;;;;;5014547;28;20014;-72
2022/11/16 09:23:37;;;;;;;31.95;21.65;;;;;;;;;;5015314;28;20033;-71
2022/11/16 09:26:03;;;;;;;30.67;22.23;;;;;;;;;;5015608;28;20097;-72
2022/11/16 09:28:29;;;;;;;30.52;21.77;;;;;;;;;;5015490;28;20033;-72
2022/11/16 09:30:57;;;;;;;31.42;21.70;;;;;;;;;;5015031;28;20054;-72
2022/11/16 09:33:23;;;;;;;34.88;23.00;;;;;;;;;;5015086;28;20026;-71
2022/11/16 09:35:48;;;;;;;31.98;22.23;;;;;;;;;;5014239;28;20022;-72
2022/11/16 09:38:14;;;;;;;29.30;21.77;;;;;;;;;;5015101;28;20455;-72
2022/11/16 09:40:41;;;;;;;38.13;25.42;;;;;;;;;;5015294;28;20025;-72
2022/11/16 09:43:09;;;;;;;13.00;11.02;;;;;;;;;;5014390;28;20026;-72
2022/11/16 09:45:34;;;;;;;11.80;10.55;;;;;;;;;;5015208;28;20017;-73
2022/11/16 09:48:02;;;;;;;10.10;9.05;;;;;;;;;;5013605;28;20125;-72
2022/11/16 09:50:30;;;;;;;10.32;9.32;;;;;;;;;;5015105;28;20021;-72
2022/11/16 09:52:58;;;;;;;11.77;10.35;;;;;;;;;;5014942;28;20022;-72
2022/11/16 09:55:36;;;;;;;13.73;11.30;;;;;;;;;;5013549;28;20071;-72
2022/11/16 09:58:06;;;;;;;21.20;17.20;;;;;;;;;;5014992;28;20116;-72
2022/11/16 10:00:31;;;;;;;26.63;20.20;;;;;;;;;;5013456;28;20026;-72
2022/11/16 10:03:04;;;;;;;19.27;14.80;;;;;;;;;;5014636;28;20180;-71
2022/11/16 10:05:35;;;;;;;18.10;13.93;;;;;;;;;;5015170;28;20022;-71
2022/11/16 10:08:21;;;;;;;17.80;14.32;;;;;;;;;;5013325;28;20497;-72
2022/11/16 10:10:49;;;;;;;18.17;13.75;;;;;;;;;;5013131;28;20432;-71
2022/11/16 10:13:28;;;;;;;18.88;14.63;;;;;;;;;;5014685;28;20413;-72
2022/11/16 10:16:13;;;;;;;18.67;14.52;;;;;;;;;;5016135;28;20061;-72
2022/11/16 10:18:39;;;;;;;16.25;12.98;;;;;;;;;;5016131;28;20057;-72
2022/11/16 10:21:17;;;;;;;13.38;11.55;;;;;;;;;;5014117;28;20111;-71
2022/11/16 10:24:01;;;;;;;12.55;10.35;;;;;;;;;;5014592;28;20038;-72
2022/11/16 10:26:45;;;;;;;13.15;11.82;;;;;;;;;;5014237;28;20029;-72
2022/11/16 10:29:25;;;;;;;14.80;12.10;;;;;;;;;;5013012;28;20037;-71
2022/11/16 10:32:02;;;;;;;13.57;11.35;;;;;;;;;;5014533;28;20489;-72
2022/11/16 10:34:29;;;;;;;11.00;9.90;;;;;;;;;;5014397;28;20026;-71
2022/11/16 10:37:02;;;;;;;13.52;11.43;;;;;;;;;;5014686;28;20465;-72
2022/11/16 10:39:30;;;;;;;13.55;11.10;;;;;;;;;;5014356;28;20030;-72
2022/11/16 10:41:57;;;;;;;15.02;12.82;;;;;;;;;;5014620;28;20032;-71
2022/11/16 10:44:36;;;;;;;13.30;11.25;;;;;;;;;;5013167;28;20486;-71
2022/11/16 10:47:21;;;;;;;13.25;11.85;;;;;;;;;;5014281;28;20037;-72
2022/11/16 10:49:58;;;;;;;12.43;10.45;;;;;;;;;;5012704;28;20179;-72
2022/11/16 10:52:24;;;;;;;20.17;16.45;;;;;;;;;;5014230;28;20029;-71
2022/11/16 10:54:51;;;;;;;14.07;12.57;;;;;;;;;;5012523;28;20026;-72
2022/11/16 10:57:16;;;;;;;10.93;9.82;;;;;;;;;;5014145;28;20171;-71
2022/11/16 10:59:43;;;;;;;13.60;11.15;;;;;;;;;;5012604;28;20519;-71
2022/11/16 11:02:21;;;;;;;19.83;17.83;;;;;;;;;;5023512;23;20053;-72
2022/11/16 11:05:06;;;;;;;21.05;14.82;;;;;;;;;;5014056;28;20033;-71
2022/11/16 11:07:39;;;;;;;16.60;13.32;;;;;;;;;;5012506;28;20053;-71
2022/11/16 11:10:27;;;;;;;20.98;13.77;;;;;;;;;;5012552;28;20095;-72
2022/11/16 11:13:15;;;;;;;21.17;16.70;;;;;;;;;;5013996;28;20534;-72
2022/11/16 11:15:41;;;;;;;35.33;32.05;;;;;;;;;;5013931;28;20037;-72
2022/11/16 11:18:11;;;;;;;19.55;17.65;;;;;;;;;;5014242;28;20458;-72
2022/11/16 11:20:40;;;;;;;65.55;48.83;;;;;;;;;;5013723;28;20134;-72
2022/11/16 11:23:16;;;;;;;73.28;65.47;;;;;;;;;;5016441;28;20018;-72
2022/11/16 11:25:51;;;;;;;17.48;15.77;;;;;;;;;;5016303;28;20030;-71
2022/11/16 11:28:30;;;;;;;14.82;11.45;;;;;;;;;;5017511;28;20073;-72
2022/11/16 11:30:59;;;;;;;13.60;10.77;;;;;;;;;;5016876;28;20033;-71
2022/11/16 11:33:44;;;;;;;12.85;11.40;;;;;;;;;;5017632;28;20450;-71
2022/11/16 11:36:17;;;;;;;15.23;11.50;;;;;;;;;;5003663;28;20390;-71
2022/11/16 11:38:55;;;;;;;16.73;14.50;;;;;;;;;;5017620;28;20022;-72
2022/11/16 11:41:20;;;;;;;13.20;11.48;;;;;;;;;;5016022;28;20561;-71
2022/11/16 11:44:19;;;;;;;10.88;8.60;;;;;;;;;;5017461;28;20502;-72
2022/11/16 11:46:56;;;;;;;9.63;8.35;;;;;;;;;;4984540;28;20073;-72
2022/11/16 11:49:25;;;;;;;10.55;9.30;;;;;;;;;;5017403;28;20025;-72
2022/11/16 11:51:52;;;;;;;10.63;8.32;;;;;;;;;;5015834;28;20116;-72
2022/11/16 11:54:21;;;;;;;8.95;8.00;;;;;;;;;;5016944;28;20474;-72
2022/11/16 11:56:46;;;;;;;9.63;8.02;;;;;;;;;;5016371;28;20030;-72
2022/11/16 11:59:16;;;;;;;10.18;8.10;;;;;;;;;;5016986;28;20088;-72
2022/11/16 12:01:46;;;;;;;8.75;7.78;;;;;;;;;;5016718;28;20486;-72
2022/11/16 12:04:41;;;;;;;7.78;6.97;;;;;;;;;;5015610;28;20030;-72
2022/11/16 12:07:25;;;;;;;9.38;7.72;;;;;;;;;;5004170;28;20053;-72
2022/11/16 12:09:55;;;;;;;6.63;6.03;;;;;;;;;;5017276;28;20084;-72
2022/11/16 12:12:43;;;;;;;5.00;4.60;;;;;;;;;;5016279;28;20033;-72
2022/11/16 12:15:08;;;;;;;4.68;4.28;;;;;;;;;;5016568;28;20041;-72
2022/11/16 12:17:34;;;;;;;6.38;3.92;;;;;;;;;;5016887;28;20018;-72
2022/11/16 12:20:11;;;;;;;4.22;3.80;;;;;;;;;;5016872;28;20058;-72
2022/11/16 12:23:00;;;;;;;4.05;3.65;;;;;;;;;;5016578;28;20022;-72
2022/11/16 12:25:57;;;;;;;5.43;4.07;;;;;;;;;;5016756;28;20033;-72
2022/11/16 12:28:31;;;;;;;4.03;3.72;;;;;;;;;;4983615;28;20042;-72
2022/11/16 12:31:23;;;;;;;3.13;2.92;;;;;;;;;;5015506;28;20521;-72
2022/11/16 12:33:54;;;;;;;3.85;3.55;;;;;;;;;;4992277;28;20053;-72
2022/11/16 12:36:30;;;;;;;3.00;2.80;;;;;;;;;;4998603;28;20030;-72
2022/11/16 12:39:19;;;;;;;5.00;3.10;;;;;;;;;;5016087;28;20033;-72
2022/11/16 12:42:10;;;;;;;7.97;5.13;;;;;;;;;;5008142;28;20038;-72
2022/11/16 12:44:36;;;;;;;22.10;13.20;;;;;;;;;;5016212;28;20085;-72
2022/11/16 12:47:01;;;;;;;53.78;29.38;;;;;;;;;;5016026;28;20493;-72
2022/11/16 12:49:26;;;;;;;4.30;4.10;;;;;;;;;;5014726;28;20033;-72
2022/11/16 12:52:06;;;;;;;3.90;3.60;;;;;;;;;;5015955;28;20022;-72
2022/11/16 12:54:47;;;;;;;4.55;4.18;;;;;;;;;;5014975;28;20044;-72
2022/11/16 12:57:31;;;;;;;16.13;13.52;;;;;;;;;;5015910;28;20466;-72
2022/11/16 13:00:07;;;;;;;3.05;2.80;;;;;;;;;;5015837;28;20437;-72
2022/11/16 13:02:40;;;;;;;2.63;2.42;;;;;;;;;;5015290;28;20379;-72
2022/11/16 13:05:17;;;;;;;2.38;2.20;;;;;;;;;;5015772;28;20033;-72
2022/11/16 13:07:51;;;;;;;1.80;1.70;;;;;;;;;;5015717;28;20021;-72
2022/11/16 13:10:32;;;;;;;2.47;2.38;;;;;;;;;;5014078;28;20069;-72
2022/11/16 13:13:02;;;;;;;1.60;1.50;;;;;;;;;;5015163;28;20101;-72
2022/11/16 13:15:37;;;;;;;5.28;4.85;;;;;;;;;;5015562;28;20478;-72
2022/11/16 13:18:05;;;;;;;59.33;54.20;;;;;;;;;;5015818;28;20100;-72
2022/11/16 13:20:37;;;;;;;23.52;17.83;;;;;;;;;;5014407;28;20014;-73
2022/11/16 13:23:02;;;;;;;1.80;1.70;;;;;;;;;;5017610;28;20106;-72
2022/11/16 13:25:37;;;;;;;23.83;21.27;;;;;;;;;;5016993;28;20029;-72
2022/11/16 13:28:10;;;;;;;15.88;9.93;;;;;;;;;;5014280;28;20273;-72
2022/11/16 13:30:50;;;;;;;8.23;7.28;;;;;;;;;;5013312;28;20036;-72
2022/11/16 13:33:51;;;;;;;11.60;8.63;;;;;;;;;;5013142;28;20485;-72
2022/11/16 13:36:29;;;;;;;5.63;5.05;;;;;;;;;;4952112;29;20476;-72
2022/11/16 13:38:54;;;;;;;10.45;7.88;;;;;;;;;;5005214;28;20481;-73
2022/11/16 13:41:27;;;;;;;5.53;5.00;;;;;;;;;;5011725;28;20018;-72
2022/11/16 13:43:52;;;;;;;4.30;3.90;;;;;;;;;;5013694;28;20025;-72
2022/11/16 13:46:17;;;;;;;2.80;2.60;;;;;;;;;;5012105;28;20029;-72
2022/11/16 13:48:44;;;;;;;2.08;1.98;;;;;;;;;;5014464;28;20021;-72
2022/11/16 13:51:18;;;;;;;5.20;3.20;;;;;;;;;;5014855;28;20109;-72
2022/11/16 13:53:49;;;;;;;21.55;13.98;;;;;;;;;;5014797;28;20044;-72
2022/11/16 13:56:14;;;;;;;;;;;;;;;;;;5015266;28;20485;-73
2022/11/16 13:58:44;;;;;;;4.40;4.00;;;;;;;;;;5013449;28;19906;-72
2022/11/16 14:01:14;;;;;;;4.67;4.33;;;;;;;;;;5014659;28;20026;-72
2022/11/16 14:03:50;;;;;;;2.90;2.70;;;;;;;;;;5014618;28;20276;-72
2022/11/16 14:06:18;;;;;;;3.33;2.60;;;;;;;;;;5014675;28;20034;-72
2022/11/16 14:08:45;;;;;;;3.78;3.45;;;;;;;;;;5013131;28;20026;-72
2022/11/16 14:11:30;;;;;;;5.55;5.07;;;;;;;;;;5014495;28;20025;-72
2022/11/16 14:13:56;;;;;;;6.22;5.70;;;;;;;;;;5014530;28;20084;-72
2022/11/16 14:16:21;;;;;;;3.55;3.25;;;;;;;;;;5014635;28;20017;-72
2022/11/16 14:18:48;;;;;;;5.28;3.15;;;;;;;;;;5014392;28;20092;-72
2022/11/16 14:21:13;;;;;;;6.05;5.45;;;;;;;;;;5014350;28;20018;-72
2022/11/16 14:23:51;;;;;;;15.50;10.50;;;;;;;;;;4996598;28;20518;-71
2022/11/16 14:26:17;;;;;;;10.20;6.70;;;;;;;;;;5014327;28;20041;-72
2022/11/16 14:28:54;;;;;;;21.92;10.63;;;;;;;;;;5012966;28;20469;-72
2022/11/16 14:31:28;;;;;;;58.05;22.05;;;;;;;;;;5012911;28;20053;-72
2022/11/16 14:33:55;;;;;;;48.25;18.77;;;;;;;;;;5014443;28;20466;-72
2022/11/16 14:36:33;;;;;;;68.60;22.58;;;;;;;;;;5014199;28;20068;-72
2022/11/16 14:39:13;;;;;;;6.15;5.47;;;;;;;;;;5013038;28;20053;-72
2022/11/16 14:41:42;;;;;;;36.72;19.65;;;;;;;;;;5014018;28;20101;-72
2022/11/16 14:44:08;;;;;;;23.67;16.20;;;;;;;;;;5013991;28;20112;-72
2022/11/16 14:46:35;;;;;;;32.67;17.48;;;;;;;;;;5012695;28;20137;-72
2022/11/16 14:49:01;;;;;;;10.20;7.32;;;;;;;;;;5013920;28;20118;-71
2022/11/16 14:51:36;;;;;;;11.77;7.78;;;;;;;;;;5014015;28;20462;-71
2022/11/16 14:54:22;;;;;;;46.08;28.73;;;;;;;;;;5012515;28;20033;-72
2022/11/16 14:56:55;;;;;;;42.17;26.02;;;;;;;;;;5013208;28;20030;-71
2022/11/16 14:59:21;;;;;;;34.88;19.00;;;;;;;;;;5013954;28;20029;-71
2022/11/16 15:01:46;;;;;;;47.78;31.65;;;;;;;;;;5012525;28;20453;-72
2022/11/16 15:04:15;;;;;;;31.80;16.35;;;;;;;;;;5013516;28;20045;-72
2022/11/16 15:06:41;;;;;;;13.55;12.35;;;;;;;;;;5013723;28;20474;-71
2022/11/16 15:09:12;;;;;;;13.25;11.85;;;;;;;;;;5013919;28;20045;-72
2022/11/16 15:14:28;;;;;;;4.97;4.25;;;;;;;;;;5013649;28;20060;-72
2022/11/16 15:16:55;;;;;;;10.57;7.50;;;;;;;;;;5013828;28;20100;-72
2022/11/16 15:19:20;;;;;;;6.30;4.10;;;;;;;;;;5013630;28;20022;-72
2022/11/16 15:21:53;;;;;;;7.45;5.00;;;;;;;;;;5012360;28;20351;-72